createdAt,value
2019-04-16T00:00:31.635Z,73.00
2019-04-16T00:03:33.209Z,73.30
2019-04-16T00:06:53.026Z,74.50
2019-04-16T00:10:02.129Z,74.30
2019-04-16T00:13:22.179Z,74.30
2019-04-16T00:16:23.455Z,74.10
2019-04-16T00:19:24.723Z,74.20
2019-04-16T00:22:27.913Z,74.30
2019-04-16T00:25:29.186Z,74.50
2019-04-16T00:28:35.480Z,74.40
2019-04-16T00:31:37.752Z,75.50
2019-04-16T00:34:39.152Z,75.60
2019-04-16T00:37:40.417Z,76.40
2019-04-16T00:40:41.902Z,75.80
2019-04-16T00:43:44.250Z,77.00
2019-04-16T00:46:46.518Z,77.80
2019-04-16T00:49:47.788Z,77.70
2019-04-16T00:52:49.183Z,78.50
2019-04-16T00:55:50.458Z,78.30
2019-04-16T00:58:52.990Z,78.50
2019-04-16T01:01:54.417Z,79.20
2019-04-16T01:05:15.841Z,79.50
2019-04-16T01:08:17.133Z,79.80
2019-04-16T01:11:18.698Z,80.70
2019-04-16T01:14:19.974Z,80.70
2019-04-16T01:17:21.253Z,81.10
2019-04-16T01:20:22.532Z,82.00
2019-04-16T01:23:23.851Z,81.70
2019-04-16T01:26:26.905Z,82.80
2019-04-16T01:29:33.661Z,82.40
2019-04-16T01:32:43.413Z,81.70
2019-04-16T01:35:51.023Z,82.30
2019-04-16T01:38:51.736Z,81.90
2019-04-16T01:41:53.407Z,81.80
2019-04-16T01:44:59.360Z,83.30
2019-04-16T01:47:58.465Z,84.00
2019-04-16T01:50:59.854Z,82.40
2019-04-16T01:54:01.911Z,82.20
2019-04-16T01:57:03.292Z,82.70
2019-04-16T02:00:08.244Z,84.10
2019-04-16T02:03:09.932Z,84.40
2019-04-16T02:06:11.391Z,84.40
2019-04-16T02:09:22.251Z,83.60
2019-04-16T02:12:15.753Z,83.30
2019-04-16T02:15:21.654Z,83.90
2019-04-16T02:18:20.282Z,83.60
2019-04-16T02:21:23.573Z,83.80
2019-04-16T02:24:24.850Z,84.50
2019-04-16T02:27:28.412Z,84.60
2019-04-16T02:30:33.715Z,84.80
2019-04-16T02:33:33.325Z,85.80
2019-04-16T02:36:34.566Z,86.20
2019-04-16T02:39:47.721Z,87.60
2019-04-16T02:42:39.065Z,86.70
2019-04-16T02:45:41.093Z,85.90
2019-04-16T02:48:49.979Z,86.50
2019-04-16T02:51:51.243Z,86.30
2019-04-16T02:54:54.416Z,86.80
2019-04-16T02:58:00.261Z,87.30
2019-04-16T03:01:20.405Z,88.30
2019-04-16T03:04:26.684Z,88.00
2019-04-16T03:07:25.332Z,88.60
2019-04-16T03:10:26.601Z,88.60
2019-04-16T03:13:28.056Z,89.50
2019-04-16T03:16:37.658Z,89.40
2019-04-16T03:19:39.148Z,89.50
2019-04-16T03:22:40.636Z,88.90
2019-04-16T03:25:44.427Z,89.00
2019-04-16T03:28:45.117Z,88.70
2019-04-16T03:31:46.454Z,89.30
2019-04-16T03:34:50.607Z,89.20
2019-04-16T03:37:50.835Z,90.00
2019-04-16T03:40:55.856Z,89.30
2019-04-16T03:43:56.143Z,89.50
2019-04-16T03:46:57.433Z,89.50
2019-04-16T03:49:59.299Z,89.80
2019-04-16T03:53:01.592Z,90.20
2019-04-16T03:56:03.059Z,90.30
2019-04-16T03:59:04.343Z,90.00
2019-04-16T04:02:05.823Z,89.40
2019-04-16T04:05:07.521Z,89.20
2019-04-16T04:08:10.164Z,89.10
2019-04-16T04:11:11.449Z,89.30
2019-04-16T04:14:12.864Z,89.50
2019-04-16T04:17:15.180Z,88.90
2019-04-16T04:20:18.129Z,89.60
2019-04-16T04:23:20.452Z,90.00
2019-04-16T04:26:21.727Z,89.40
2019-04-16T04:29:24.771Z,88.90
2019-04-16T04:32:26.299Z,88.70
2019-04-16T04:35:27.755Z,88.50
2019-04-16T04:38:29.552Z,88.30
2019-04-16T04:41:30.947Z,87.90
2019-04-16T04:44:33.663Z,87.10
2019-04-16T04:47:35.648Z,87.00
2019-04-16T04:50:36.911Z,86.70
2019-04-16T04:53:38.374Z,86.70
2019-04-16T04:56:39.651Z,84.80
2019-04-16T04:59:41.874Z,83.80
2019-04-16T05:02:43.757Z,84.30
2019-04-16T05:05:56.147Z,83.90
2019-04-16T05:08:57.664Z,83.60
2019-04-16T05:12:00.322Z,82.70
2019-04-16T05:15:03.879Z,82.10
2019-04-16T05:18:05.876Z,81.80
2019-04-16T05:21:07.418Z,81.60
2019-04-16T05:24:09.689Z,81.10
2019-04-16T05:27:10.969Z,80.80
2019-04-16T05:30:12.902Z,80.70
2019-04-16T05:33:14.177Z,79.70
2019-04-16T05:36:15.754Z,79.10
2019-04-16T05:39:17.138Z,79.20
2019-04-16T05:42:18.625Z,77.50
2019-04-16T05:45:19.909Z,77.30
2019-04-16T05:48:22.716Z,76.60
2019-04-16T05:51:24.096Z,75.60
2019-04-16T05:54:36.142Z,75.20
2019-04-16T05:57:39.675Z,74.90
2019-04-16T06:00:43.044Z,73.20
2019-04-16T06:03:44.439Z,72.60
2019-04-16T06:06:47.649Z,71.50
2019-04-16T06:09:50.049Z,71.00
2019-04-16T06:13:12.600Z,69.70
2019-04-16T06:16:18.596Z,69.00
2019-04-16T06:19:31.066Z,68.50
2019-04-16T06:22:49.684Z,65.60
2019-04-16T06:25:53.235Z,66.10
2019-04-16T06:29:13.654Z,64.20
2019-04-16T06:32:22.841Z,63.40
2019-04-16T06:35:44.507Z,61.90
2019-04-16T06:38:57.758Z,61.90
2019-04-16T06:42:04.832Z,61.80
2019-04-16T06:45:08.019Z,62.20
2019-04-16T06:48:13.138Z,61.70
2019-04-16T06:51:16.193Z,61.00
2019-04-16T06:54:19.565Z,61.00
2019-04-16T06:57:42.927Z,59.80
2019-04-16T07:01:06.017Z,58.40
2019-04-16T07:04:08.384Z,57.30
2019-04-16T07:07:14.801Z,55.40
2019-04-16T07:10:18.220Z,56.10
2019-04-16T07:13:19.693Z,54.70
2019-04-16T07:16:21.096Z,53.60
2019-04-16T07:19:22.897Z,54.50
2019-04-16T07:22:24.153Z,53.30
2019-04-16T07:25:27.882Z,53.40
2019-04-16T07:28:31.392Z,51.90
2019-04-16T07:31:37.749Z,51.60
2019-04-16T07:34:56.571Z,52.70
2019-04-16T07:38:15.244Z,52.60
2019-04-16T07:41:24.441Z,51.80
2019-04-16T07:44:27.735Z,51.10
2019-04-16T07:47:48.287Z,51.50
2019-04-16T07:51:04.819Z,51.40
2019-04-16T07:54:07.230Z,50.50
2019-04-16T07:57:08.715Z,48.80
2019-04-16T08:00:10.190Z,48.30
2019-04-16T08:03:11.685Z,49.60
2019-04-16T08:06:14.263Z,48.20
2019-04-16T08:09:16.012Z,48.00
2019-04-16T08:12:29.947Z,47.60
2019-04-16T08:15:21.022Z,48.10
2019-04-16T08:18:22.303Z,47.70
2019-04-16T08:21:23.765Z,47.80
2019-04-16T08:24:27.196Z,45.50
2019-04-16T08:27:28.501Z,45.50
2019-04-16T08:30:34.106Z,45.70
2019-04-16T08:33:33.322Z,46.30
2019-04-16T08:36:35.119Z,44.50
2019-04-16T08:39:36.886Z,45.10
2019-04-16T08:42:44.767Z,45.20
2019-04-16T08:45:43.121Z,45.60
2019-04-16T08:48:48.954Z,45.30
2019-04-16T08:51:47.646Z,45.30
2019-04-16T08:54:50.391Z,44.80
2019-04-16T08:57:52.078Z,44.20
2019-04-16T09:00:53.625Z,43.40
2019-04-16T09:03:54.940Z,43.00
2019-04-16T09:07:09.596Z,44.00
2019-04-16T09:10:00.013Z,43.00
2019-04-16T09:13:09.570Z,42.60
2019-04-16T09:16:11.167Z,43.20
2019-04-16T09:19:20.532Z,43.40
2019-04-16T09:22:21.991Z,43.60
2019-04-16T09:25:31.349Z,43.40
2019-04-16T09:28:34.564Z,44.10
2019-04-16T09:31:41.283Z,43.90
2019-04-16T09:35:09.184Z,43.20
2019-04-16T09:38:21.588Z,42.00
2019-04-16T09:41:24.854Z,40.80
2019-04-16T09:44:29.776Z,41.20
2019-04-16T09:47:32.667Z,41.60
2019-04-16T09:50:32.537Z,41.80
2019-04-16T09:53:37.564Z,42.20
2019-04-16T09:56:37.094Z,42.20
2019-04-16T09:59:44.662Z,43.00
2019-04-16T10:02:46.740Z,42.00
2019-04-16T10:05:48.012Z,41.50
2019-04-16T10:08:49.327Z,42.60
2019-04-16T10:11:50.816Z,42.40
2019-04-16T10:14:52.075Z,43.40
2019-04-16T10:17:53.467Z,44.10
2019-04-16T10:20:54.763Z,45.20
2019-04-16T10:23:57.945Z,46.20
2019-04-16T10:26:59.993Z,46.40
2019-04-16T10:30:02.302Z,46.10
2019-04-16T10:33:04.270Z,46.90
2019-04-16T10:36:06.155Z,47.80
2019-04-16T10:39:15.378Z,46.00
2019-04-16T10:42:21.669Z,46.10
2019-04-16T10:45:41.329Z,48.70
2019-04-16T10:48:50.780Z,48.10
2019-04-16T10:52:06.357Z,48.50
2019-04-16T10:55:18.770Z,48.80
2019-04-16T10:58:38.543Z,49.70
2019-04-16T11:01:42.238Z,48.90
2019-04-16T11:04:48.772Z,47.10
2019-04-16T11:07:51.981Z,46.80
2019-04-16T11:10:55.206Z,46.30
2019-04-16T11:14:00.219Z,48.80
2019-04-16T11:16:59.703Z,49.30
2019-04-16T11:20:01.024Z,49.50
2019-04-16T11:23:02.317Z,52.60
2019-04-16T11:26:03.791Z,56.90
2019-04-16T11:29:05.268Z,54.80
2019-04-16T11:32:07.338Z,54.80
2019-04-16T11:35:09.459Z,54.90
2019-04-16T11:38:11.116Z,55.00
2019-04-16T11:41:13.132Z,56.40
2019-04-16T11:44:16.815Z,56.70
2019-04-16T11:47:17.817Z,58.30
2019-04-16T11:50:19.310Z,60.70
2019-04-16T11:53:20.569Z,63.30
2019-04-16T11:56:22.643Z,64.00
2019-04-16T11:59:24.209Z,65.20
2019-04-16T12:02:27.598Z,66.70
2019-04-16T12:05:47.376Z,66.80
2019-04-16T12:09:07.457Z,67.20
2019-04-16T12:15:47.556Z,69.30
2019-04-16T12:18:59.643Z,70.00
2019-04-16T12:22:03.132Z,71.30
2019-04-16T12:25:26.689Z,74.70
2019-04-16T12:28:43.340Z,76.00
2019-04-16T12:31:49.487Z,79.10
2019-04-16T12:35:09.306Z,78.30
2019-04-16T12:38:31.188Z,79.60
2019-04-16T12:41:43.698Z,82.00
2019-04-16T12:44:56.205Z,83.90
2019-04-16T12:48:16.421Z,86.10
2019-04-16T12:51:25.953Z,88.50
2019-04-16T12:58:03.891Z,90.80
2019-04-16T13:01:25.683Z,90.70
2019-04-16T13:04:45.764Z,91.30
2019-04-16T13:08:07.063Z,91.40
2019-04-16T13:11:25.383Z,91.40
2019-04-16T13:14:31.437Z,91.90
2019-04-16T13:17:40.615Z,92.10
2019-04-16T13:20:46.929Z,92.60
2019-04-16T13:23:56.007Z,92.30
2019-04-16T13:26:59.189Z,92.80
2019-04-16T13:30:02.371Z,93.20
2019-04-16T13:33:04.449Z,93.70
2019-04-16T13:36:05.893Z,94.00
2019-04-16T13:39:10.579Z,94.30
2019-04-16T13:42:13.096Z,93.90
2019-04-16T13:45:32.434Z,94.10
2019-04-16T13:48:42.529Z,94.10
2019-04-16T13:51:45.086Z,94.40
2019-04-16T13:55:01.253Z,94.60
2019-04-16T13:58:04.600Z,94.90
2019-04-16T14:01:17.173Z,94.70
2019-04-16T14:04:19.036Z,95.40
2019-04-16T14:07:20.399Z,95.30
2019-04-16T14:10:43.323Z,95.80
2019-04-16T14:13:45.996Z,95.70
2019-04-16T14:16:48.103Z,95.90
2019-04-16T14:19:49.403Z,95.60
2019-04-16T14:22:53.534Z,95.70
2019-04-16T14:25:54.246Z,95.90
2019-04-16T14:28:56.978Z,96.10
2019-04-16T14:32:00.859Z,96.50
2019-04-16T14:35:05.507Z,96.10
2019-04-16T14:38:07.521Z,95.90
2019-04-16T14:41:11.945Z,95.90
2019-04-16T14:44:14.381Z,96.10
2019-04-16T14:47:17.786Z,95.90
2019-04-16T14:50:19.961Z,96.20
2019-04-16T14:53:36.670Z,96.40
2019-04-16T14:56:40.166Z,96.40
2019-04-16T14:59:47.821Z,96.30
2019-04-16T15:02:51.184Z,96.50
2019-04-16T15:05:55.341Z,96.70
2019-04-16T15:09:13.689Z,96.60
2019-04-16T15:12:28.079Z,96.50
2019-04-16T15:15:36.378Z,96.60
2019-04-16T15:18:57.823Z,96.60
2019-04-16T15:22:17.812Z,96.60
2019-04-16T15:25:21.688Z,96.60
2019-04-16T15:28:28.254Z,96.70
2019-04-16T15:31:46.004Z,96.60
2019-04-16T15:34:49.246Z,97.20
2019-04-16T15:37:57.853Z,97.00
2019-04-16T15:41:00.634Z,97.20
2019-04-16T15:44:23.652Z,96.70
2019-04-16T15:47:31.906Z,96.90
2019-04-16T15:50:53.743Z,97.00
2019-04-16T15:53:59.676Z,97.00
2019-04-16T15:57:19.867Z,97.00
2019-04-16T16:00:23.411Z,96.90
2019-04-16T16:03:29.787Z,97.00
2019-04-16T16:06:33.514Z,97.00
2019-04-16T16:09:49.615Z,97.10
2019-04-16T16:12:53.608Z,97.30
2019-04-16T16:15:55.667Z,97.40
2019-04-16T16:18:57.237Z,97.40
2019-04-16T16:21:59.834Z,97.60
2019-04-16T16:25:01.844Z,98.10
2019-04-16T16:28:04.598Z,97.90
2019-04-16T16:31:06.313Z,97.90
2019-04-16T16:34:09.086Z,98.00
2019-04-16T16:37:11.078Z,98.10
2019-04-16T16:40:15.192Z,98.10
2019-04-16T16:43:16.745Z,98.20
2019-04-16T16:46:35.063Z,98.10
2019-04-16T16:49:36.567Z,98.20
2019-04-16T16:52:59.225Z,98.30
2019-04-16T16:56:03.570Z,98.30
2019-04-16T16:59:23.569Z,98.30
2019-04-16T17:02:32.109Z,98.30
2019-04-16T17:05:35.662Z,98.30
2019-04-16T17:08:37.343Z,98.40
2019-04-16T17:11:42.846Z,98.60
2019-04-16T17:14:44.114Z,98.60
2019-04-16T17:17:45.920Z,98.70
2019-04-16T17:20:50.381Z,98.80
2019-04-16T17:23:52.706Z,98.80
2019-04-16T17:26:55.990Z,98.80
2019-04-16T17:30:00.888Z,98.80
2019-04-16T17:33:02.765Z,98.90
2019-04-16T17:36:05.564Z,99.10
2019-04-16T17:39:10.431Z,99.10
2019-04-16T17:42:14.046Z,99.30
2019-04-16T17:45:36.554Z,99.10
2019-04-16T17:48:46.101Z,99.10
2019-04-16T17:51:51.204Z,99.10
2019-04-16T17:58:27.322Z,99.30
2019-04-16T18:01:43.567Z,99.40
2019-04-16T18:05:05.491Z,99.40
2019-04-16T18:08:27.479Z,99.50
2019-04-16T18:11:31.751Z,99.60
2019-04-16T18:18:16.828Z,99.70
2019-04-16T18:21:31.706Z,99.60
2019-04-16T18:24:41.416Z,99.80
2019-04-16T18:28:04.358Z,99.70
2019-04-16T18:31:25.155Z,99.80
2019-04-16T18:34:35.569Z,99.90
2019-04-16T18:37:54.878Z,99.90
2019-04-16T18:41:01.940Z,99.90
2019-04-16T18:44:10.009Z,99.90
2019-04-16T18:47:30.282Z,99.90
2019-04-16T18:50:32.343Z,99.90
2019-04-16T18:53:34.564Z,99.90
2019-04-16T18:56:38.280Z,99.90
2019-04-16T18:59:40.671Z,99.90
2019-04-16T19:02:44.082Z,99.90
2019-04-16T19:05:48.022Z,99.90
2019-04-16T19:08:50.681Z,99.90
2019-04-16T19:11:56.184Z,99.90
2019-04-16T19:15:01.785Z,99.90
2019-04-16T19:18:18.516Z,99.90
2019-04-16T19:21:07.159Z,99.90
2019-04-16T19:24:09.056Z,99.90
2019-04-16T19:27:12.833Z,99.90
2019-04-16T19:30:15.745Z,99.90
2019-04-16T19:33:17.689Z,99.90
2019-04-16T19:36:27.224Z,99.90
2019-04-16T19:39:26.425Z,99.90
2019-04-16T19:42:28.721Z,99.90
2019-04-16T19:45:33.870Z,99.90
2019-04-16T19:48:36.378Z,99.90
2019-04-16T19:51:41.965Z,99.90
2019-04-16T19:54:44.314Z,99.90
2019-04-16T19:57:47.603Z,99.90
2019-04-16T20:00:50.144Z,99.90
2019-04-16T20:03:52.010Z,99.90
2019-04-16T20:06:59.989Z,99.90
2019-04-16T20:09:59.773Z,99.90
2019-04-16T20:13:01.362Z,99.90
2019-04-16T20:16:03.491Z,99.90
2019-04-16T20:19:05.430Z,99.90
2019-04-16T20:22:07.211Z,99.90
2019-04-16T20:25:09.543Z,99.90
2019-04-16T20:28:15.460Z,99.90
2019-04-16T20:31:14.564Z,99.90
2019-04-16T20:34:18.048Z,99.90
2019-04-16T20:37:21.376Z,99.90
2019-04-16T20:40:23.837Z,99.90
2019-04-16T20:43:25.106Z,99.90
2019-04-16T20:46:26.793Z,99.90
2019-04-16T20:49:28.618Z,99.90
2019-04-16T20:52:30.853Z,99.90
2019-04-16T20:55:33.574Z,99.90
2019-04-16T20:58:35.073Z,99.90
2019-04-16T21:01:37.815Z,99.90
2019-04-16T21:04:39.784Z,99.90
2019-04-16T21:07:43.934Z,99.90
2019-04-16T21:10:44.796Z,99.90
2019-04-16T21:13:46.945Z,99.90
2019-04-16T21:16:49.600Z,99.90
2019-04-16T21:19:50.834Z,99.90
2019-04-16T21:22:52.872Z,99.90
2019-04-16T21:25:54.167Z,99.90
2019-04-16T21:29:02.134Z,99.90
2019-04-16T21:32:23.961Z,99.90
2019-04-16T21:35:32.006Z,99.90
2019-04-16T21:38:38.240Z,99.90
2019-04-16T21:41:39.641Z,99.90
2019-04-16T21:44:41.351Z,99.90
2019-04-16T21:47:44.551Z,99.90
2019-04-16T21:50:47.604Z,99.90
2019-04-16T21:53:49.152Z,99.90
2019-04-16T21:56:54.630Z,99.90
2019-04-16T21:59:58.082Z,99.90
2019-04-16T22:02:58.140Z,99.90
2019-04-16T22:05:59.914Z,99.90
2019-04-16T22:09:03.286Z,99.90
2019-04-16T22:12:06.252Z,99.90
2019-04-16T22:15:07.613Z,99.90
2019-04-16T22:18:10.012Z,99.90
2019-04-16T22:21:11.799Z,99.90
2019-04-16T22:24:13.190Z,99.90
2019-04-16T22:27:14.462Z,99.90
2019-04-16T22:30:19.105Z,99.90
2019-04-16T22:33:18.956Z,99.90
2019-04-16T22:36:20.514Z,99.90
2019-04-16T22:39:23.684Z,99.90
2019-04-16T22:42:29.845Z,99.90
2019-04-16T22:45:32.824Z,99.90
2019-04-16T22:48:34.099Z,99.90
2019-04-16T22:51:35.621Z,99.90
2019-04-16T22:54:36.993Z,99.90
2019-04-16T22:57:38.377Z,99.90
2019-04-16T23:00:44.407Z,99.90
2019-04-16T23:03:44.696Z,99.90
2019-04-16T23:06:46.185Z,99.90
2019-04-16T23:09:48.679Z,99.90
2019-04-16T23:12:51.739Z,99.90
2019-04-16T23:15:53.010Z,99.90
2019-04-16T23:18:54.583Z,99.90
2019-04-16T23:21:55.844Z,99.90
2019-04-16T23:24:57.729Z,99.90
2019-04-16T23:27:59.375Z,99.90
2019-04-16T23:31:01.367Z,99.90
2019-04-16T23:34:06.047Z,99.90
2019-04-16T23:37:05.881Z,99.90
2019-04-16T23:40:10.573Z,99.90
2019-04-16T23:43:18.745Z,99.90
2019-04-16T23:46:40.045Z,99.90
2019-04-16T23:49:48.996Z,99.90
2019-04-16T23:53:08.846Z,99.90
2019-04-16T23:56:24.445Z,99.90
2019-04-16T23:59:32.668Z,99.90
